Time;durP1;ratioP1;P1;durP2;ratioP2;P2;SDS_P1;SDS_P2;PMS_P1;PMS_P2;Temp;Humidity;BMP_temperature;BMP_pressure;BME280_temperature;BME280_humidity;BME280_pressure;Samples;Min_cycle;Max_cycle;Signal;HPM_P1;HPM_P2
2021/01/18 00:02:18;;;;;;;;;;;;;;;-6.93;100.00;101452.47;5115255;28;19924;-71
2021/01/18 00:04:44;;;;;;;;;;;;;;;-6.92;100.00;101448.97;5097743;28;19924;-71
2021/01/18 00:07:10;;;;;;;;;;;;;;;-6.94;100.00;101445.44;5114637;28;20356;-72
2021/01/18 00:09:36;;;;;;;;;;;;;;;-6.95;100.00;101451.63;5099086;28;19966;-71
2021/01/18 00:12:02;;;;;;;;;;;;;;;-6.98;100.00;101438.38;5094600;28;19924;-71
2021/01/18 00:14:28;;;;;;;;;;;;;;;-6.97;100.00;101437.50;5101761;28;19946;-71
2021/01/18 00:16:54;;;;;;;;;;;;;;;-6.97;100.00;101437.50;5100753;28;19955;-72
2021/01/18 00:19:20;;;;;;;;;;;;;;;-6.99;100.00;101433.97;5107289;28;20429;-71
2021/01/18 00:21:46;;;;;;;;;;;;;;;-7.00;100.00;101431.34;5114505;28;20015;-71
2021/01/18 00:24:12;;;;;;;;;;;;;;;-7.04;100.00;101430.47;5114774;28;19931;-71
2021/01/18 00:26:37;;;;;;;;;;;;;;;-7.07;100.00;101430.44;5112606;28;19924;-71
2021/01/18 00:29:03;;;;;;;;;;;;;;;-7.10;100.00;101428.66;5103526;28;19932;-71
2021/01/18 00:31:30;;;;;;;;;;;;;;;-7.11;100.00;101433.94;5094406;28;19960;-71
2021/01/18 00:33:55;;;;;;;;;;;;;;;-7.14;100.00;101429.53;5096093;28;19959;-71
2021/01/18 00:36:21;;;;;;;;;;;;;;;-7.17;100.00;101421.63;5112751;28;19931;-71
2021/01/18 00:38:47;;;;;;;;;;;;;;;-7.21;100.00;101418.94;5109910;28;20430;-70
2021/01/18 00:41:13;;;;;;;;;;;;;;;-7.26;100.00;101417.19;5096574;28;19924;-71
2021/01/18 00:43:39;;;;;;;;;;;;;;;-7.31;100.00;101413.69;5093849;28;19931;-71
2021/01/18 00:46:04;;;;;;;;;;;;;;;-7.34;100.00;101412.78;5092486;28;19924;-71
2021/01/18 00:48:31;;;;;;;;;;;;;;;-7.35;100.00;101416.28;5098701;28;20412;-71
2021/01/18 00:50:57;;;;;;;;;;;;;;;-7.36;100.00;101417.16;5100308;28;19935;-73
2021/01/18 00:53:23;;;;;;;;;;;;;;;-7.38;100.00;101416.28;5093791;28;19924;-71
2021/01/18 00:55:49;;;;;;;;;;;;;;;-7.39;100.00;101410.09;5092644;28;20009;-70
2021/01/18 00:58:34;;;;;;;;;;;;;;;-7.38;100.00;101411.00;5094891;28;19985;-71
2021/01/18 01:01:18;;;;;;;;;;;;;;;-7.39;100.00;101399.56;5093619;28;20404;-70
2021/01/18 01:03:46;;;;;;;;;;;;;;;-7.35;100.00;101403.97;5102865;28;19931;-71
2021/01/18 01:06:11;;;;;;;;;;;;;;;-7.36;100.00;101407.50;5112610;28;19931;-71
2021/01/18 01:08:38;;;;;;;;;;;;;;;-7.37;100.00;101402.22;5113529;28;19924;-70
2021/01/18 01:11:04;;;;;;;;;;;;;;;-7.40;100.00;101400.44;5099713;28;20015;-70
2021/01/18 01:13:30;;;;;;;;;;;;;;;-7.44;100.00;101404.81;5093299;28;19928;-71
2021/01/18 01:15:57;;;;;;;;;;;;;;;-7.47;100.00;101404.81;5093254;28;19931;-70
2021/01/18 01:18:22;;;;;;;;;;;;;;;-7.51;100.00;101408.28;5093385;28;19924;-71
2021/01/18 01:20:49;;;;;;;;;;;;;;;-7.57;100.00;101403.00;5104637;28;19927;-70
2021/01/18 01:23:15;;;;;;;;;;;;;;;-7.59;100.00;101402.09;5113562;28;19923;-70
2021/01/18 01:25:41;;;;;;;;;;;;;;;-7.60;100.00;101398.59;5113315;28;19932;-73
2021/01/18 01:28:07;;;;;;;;;;;;;;;-7.63;100.00;101393.31;5113114;28;20453;-70
2021/01/18 01:30:33;;;;;;;;;;;;;;;-7.61;100.00;101403.88;5104228;28;19931;-72
2021/01/18 01:32:59;;;;;;;;;;;;;;;-7.61;100.00;101402.09;5093114;28;19924;-72
2021/01/18 01:35:26;;;;;;;;;;;;;;;-7.60;100.00;101395.09;5092969;28;20278;-73
2021/01/18 01:37:53;;;;;;;;;;;;;;;-7.62;100.00;101395.06;5092912;28;20015;-72
2021/01/18 01:40:19;;;;;;;;;;;;;;;-7.64;100.00;101391.56;5098094;28;20011;-72
2021/01/18 01:42:46;;;;;;;;;;;;;;;-7.65;100.00;101394.19;5112942;28;20511;-72
2021/01/18 01:45:13;;;;;;;;;;;;;;;-7.68;100.00;101389.78;5112906;28;20042;-72
2021/01/18 01:47:39;;;;;;;;;;;;;;;-7.67;100.00;101385.38;5112594;28;20009;-72
2021/01/18 01:50:06;;;;;;;;;;;;;;;-7.68;100.00;101387.16;5108068;28;20392;-72
2021/01/18 01:52:34;;;;;;;;;;;;;;;-7.69;100.00;101388.00;5092618;28;20019;-72
2021/01/18 01:55:01;;;;;;;;;;;;;;;-7.71;100.00;101383.59;5092639;28;20469;-72
2021/01/18 01:57:29;;;;;;;;;;;;;;;-7.74;100.00;101376.56;5093287;28;19935;-73
2021/01/18 01:59:56;;;;;;;;;;;;;;;-7.77;100.00;101385.34;5095383;28;19963;-73
2021/01/18 02:02:22;;;;;;;;;;;;;;;-7.78;100.00;101388.84;5112844;28;20019;-72
2021/01/18 02:04:48;;;;;;;;;;;;;;;-7.80;100.00;101387.97;5112210;28;19989;-72
2021/01/18 02:07:21;;;;;;;;;;;;;;;-7.79;100.00;101388.84;5112491;28;19931;-70
2021/01/18 02:09:47;;;;;;;;;;;;;;;-7.83;100.00;101380.06;5111055;28;19930;-70
2021/01/18 02:12:14;;;;;;;;;;;;;;;-7.81;100.00;101382.69;5092439;28;19925;-70
2021/01/18 02:14:44;;;;;;;;;;;;;;;-7.80;100.00;101387.97;5090596;28;19966;-72
2021/01/18 02:17:17;;;;;;;;;;;;;;;-7.83;100.00;101384.41;5092060;28;20019;-72
2021/01/18 02:20:01;;;;;;;;;;;;;;;-7.87;100.00;101387.91;5092698;28;20026;-70
2021/01/18 02:22:40;;;;;;;;;;;;;;;-7.88;100.00;101380.88;5112280;28;20401;-72
2021/01/18 02:25:11;;;;;;;;;;;;;;;-7.87;100.00;101387.91;5102041;28;20011;-72
2021/01/18 02:27:55;;;;;;;;;;;;;;;-7.88;100.00;101376.50;5111969;28;19989;-72
2021/01/18 02:30:31;;;;;;;;;;;;;;;-7.91;100.00;101385.28;5105957;28;20024;-73
2021/01/18 02:33:10;;;;;;;;;;;;;;;-7.91;100.00;101387.00;5091909;28;19970;-73
2021/01/18 02:36:03;;;;;;;;;;;;;;;-7.92;100.00;101385.28;5090423;28;20030;-72
2021/01/18 02:38:31;;;;;;;;;;;;;;;-7.89;100.00;101384.41;5049114;28;20010;-72
2021/01/18 02:41:03;;;;;;;;;;;;;;;-7.91;100.00;101380.00;5107958;28;19928;-72
2021/01/18 02:43:31;;;;;;;;;;;;;;;-7.91;100.00;101385.28;5117137;28;19928;-72
2021/01/18 02:46:01;;;;;;;;;;;;;;;-7.92;100.00;101380.88;5113389;28;20432;-72
2021/01/18 02:48:27;;;;;;;;;;;;;;;-7.92;100.00;101380.00;5111966;28;20028;-72
2021/01/18 02:50:55;;;;;;;;;;;;;;;-7.92;100.00;101370.31;5111714;28;20319;-72
2021/01/18 02:53:21;;;;;;;;;;;;;;;-7.92;100.00;101372.97;5110989;28;20065;-72
2021/01/18 02:55:48;;;;;;;;;;;;;;;-7.90;100.00;101367.69;5110030;28;20381;-72
2021/01/18 02:58:16;;;;;;;;;;;;;;;-7.86;100.00;101358.06;5092906;28;20404;-70
2021/01/18 03:00:45;;;;;;;;;;;;;;;-7.84;100.00;101356.28;5092723;28;20023;-70
2021/01/18 03:03:20;;;;;;;;;;;;;;;-7.80;100.00;101355.44;5091422;28;20019;-71
2021/01/18 03:05:50;;;;;;;;;;;;;;;-7.79;100.00;101355.47;5091371;28;19959;-70
2021/01/18 03:08:20;;;;;;;;;;;;;;;-7.77;100.00;101347.56;5091445;28;19947;-71
2021/01/18 03:10:50;;;;;;;;;;;;;;;-7.73;100.00;101354.59;5094827;28;20026;-74
2021/01/18 03:13:18;;;;;;;;;;;;;;;-7.69;100.00;101351.09;5111661;28;19924;-70
2021/01/18 03:15:46;;;;;;;;;;;;;;;-7.65;100.00;101349.34;5111649;28;19966;-71
2021/01/18 03:18:15;;;;;;;;;;;;;;;-7.60;100.00;101345.00;5111261;28;20448;-70
2021/01/18 03:20:42;;;;;;;;;;;;;;;-7.54;100.00;101344.13;5109175;28;19978;-70
2021/01/18 03:23:08;;;;;;;;;;;;;;;-7.49;100.00;101347.66;5091606;28;19967;-70
2021/01/18 03:25:45;;;;;;;;;;;;;;;-7.43;100.00;101347.66;5090988;28;20312;-70
2021/01/18 03:28:12;;;;;;;;;;;;;;;-7.39;100.00;101354.69;5091580;28;19928;-73
2021/01/18 03:30:38;;;;;;;;;;;;;;;-7.38;100.00;101347.69;5095971;28;20348;-71
2021/01/18 03:33:04;;;;;;;;;;;;;;;-7.38;100.00;101347.69;5115488;28;19923;-72
2021/01/18 03:35:30;;;;;;;;;;;;;;;-7.39;100.00;101344.16;5114988;28;19962;-72
2021/01/18 03:37:56;;;;;;;;;;;;;;;-7.37;100.00;101337.13;5115426;28;20385;-73
2021/01/18 03:40:22;;;;;;;;;;;;;;;-7.38;100.00;101338.00;5115598;28;20008;-73
2021/01/18 03:42:52;;;;;;;;;;;;;;;-7.35;100.00;101338.00;5095284;28;20472;-72
2021/01/18 03:45:18;;;;;;;;;;;;;;;-7.29;100.00;101339.78;5095130;28;20028;-72
2021/01/18 03:47:44;;;;;;;;;;;;;;;-7.21;100.00;101342.44;5094920;28;20013;-73
2021/01/18 03:50:11;;;;;;;;;;;;;;;-7.18;100.00;101343.31;5094995;28;20143;-73
2021/01/18 03:52:37;;;;;;;;;;;;;;;-7.12;100.00;101335.44;5112672;28;20401;-72
2021/01/18 03:55:03;;;;;;;;;;;;;;;-7.08;100.00;101334.56;5115177;28;19923;-72
2021/01/18 03:57:28;;;;;;;;;;;;;;;-7.01;100.00;101343.34;5113469;28;19928;-72
2021/01/18 03:59:54;;;;;;;;;;;;;;;-6.93;100.00;101341.59;5115361;28;19924;-72
2021/01/18 04:02:21;;;;;;;;;;;;;;;-6.93;100.00;101346.00;5108123;28;19923;-72
2021/01/18 04:04:46;;;;;;;;;;;;;;;-6.88;100.00;101330.16;5115008;28;19930;-72
2021/01/18 04:07:12;;;;;;;;;;;;;;;-6.88;100.00;101324.88;5114569;28;19923;-72
2021/01/18 04:09:38;;;;;;;;;;;;;;;-6.87;100.00;101313.44;5115035;28;19931;-74
2021/01/18 04:12:04;;;;;;;;;;;;;;;-6.87;100.00;101314.31;5102191;28;19969;-72
2021/01/18 04:14:30;;;;;;;;;;;;;;;-6.83;100.00;101313.44;5094453;28;19928;-72
2021/01/18 04:16:56;;;;;;;;;;;;;;;-6.81;100.00;101316.97;5094345;28;20424;-70
2021/01/18 04:19:22;;;;;;;;;;;;;;;-6.81;100.00;101326.66;5094445;28;19947;-70
2021/01/18 04:21:48;;;;;;;;;;;;;;;-6.75;100.00;101324.91;5103880;28;20010;-70
2021/01/18 04:24:14;;;;;;;;;;;;;;;-6.70;100.00;101318.72;5114842;28;19947;-71
2021/01/18 04:26:40;;;;;;;;;;;;;;;-6.72;100.00;101329.28;5114577;28;19924;-71
2021/01/18 04:29:05;;;;;;;;;;;;;;;-6.74;100.00;101317.84;5114621;28;20293;-71
2021/01/18 04:31:31;;;;;;;;;;;;;;;-6.75;100.00;101322.25;5106451;28;20429;-71
2021/01/18 04:33:57;;;;;;;;;;;;;;;-6.73;100.00;101317.84;5100671;28;20014;-71
2021/01/18 04:36:24;;;;;;;;;;;;;;;-6.69;100.00;101310.81;5104824;28;19931;-71
2021/01/18 04:38:49;;;;;;;;;;;;;;;-6.64;100.00;101316.06;5113474;28;20045;-71
2021/01/18 04:41:15;;;;;;;;;;;;;;;-6.63;100.00;101316.06;5108115;28;19928;-71
2021/01/18 04:43:44;;;;;;;;;;;;;;;-6.66;100.00;101302.88;5093920;28;19928;-72
2021/01/18 04:46:10;;;;;;;;;;;;;;;-6.64;100.00;101303.75;5093871;28;19998;-71
2021/01/18 04:48:37;;;;;;;;;;;;;;;-6.61;100.00;101300.25;5093831;28;19939;-71
2021/01/18 04:51:03;;;;;;;;;;;;;;;-6.53;100.00;101313.41;5096603;28;19970;-71
2021/01/18 04:53:30;;;;;;;;;;;;;;;-6.49;100.00;101312.53;5113968;28;19955;-71
2021/01/18 04:56:03;;;;;;;;;;;;;;;-6.49;100.00;101308.13;5113940;28;20393;-71
2021/01/18 04:58:30;;;;;;;;;;;;;;;-6.52;100.00;101304.59;5101153;28;19928;-71
2021/01/18 05:00:56;;;;;;;;;;;;;;;-6.51;100.00;101309.88;5095281;28;20014;-72
2021/01/18 05:03:22;;;;;;;;;;;;;;;-6.54;100.00;101303.75;5100916;28;19946;-71
2021/01/18 05:05:57;;;;;;;;;;;;;;;-6.58;100.00;101302.88;5108947;28;19957;-73
2021/01/18 05:08:45;;;;;;;;;;;;;;;-6.58;100.00;101298.44;5114055;28;19965;-72
2021/01/18 05:11:13;;;;;;;;;;;;;;;-6.52;100.00;101301.97;5111954;28;19963;-71
2021/01/18 05:13:39;;;;;;;;;;;;;;;-6.49;100.00;101300.22;5113426;28;20008;-72
2021/01/18 05:16:06;;;;;;;;;;;;;;;-6.42;100.00;101306.38;5112518;28;20295;-72
2021/01/18 05:18:33;;;;;;;;;;;;;;;-6.46;100.00;101307.25;5113830;28;19966;-71
2021/01/18 05:21:00;;;;;;;;;;;;;;;-6.45;100.00;101304.59;5107283;28;19963;-71
2021/01/18 05:23:26;;;;;;;;;;;;;;;-6.44;100.00;101302.81;5091997;28;19971;-71
2021/01/18 05:26:13;;;;;;;;;;;;;;;-6.43;100.00;101294.03;5101898;28;19931;-71
2021/01/18 05:28:42;;;;;;;;;;;;;;;-6.40;100.00;101297.56;5110844;28;19974;-71
2021/01/18 05:31:08;;;;;;;;;;;;;;;-6.36;100.00;101294.88;5108702;28;20010;-71
2021/01/18 05:33:37;;;;;;;;;;;;;;;-6.35;100.00;101297.53;5092940;28;19970;-71
2021/01/18 05:36:03;;;;;;;;;;;;;;;-6.30;100.00;101287.81;5092836;28;19963;-70
2021/01/18 05:38:29;;;;;;;;;;;;;;;-6.32;100.00;101284.31;5104366;28;20466;-71
2021/01/18 05:40:58;;;;;;;;;;;;;;;-6.29;100.00;101281.66;5113297;28;19924;-72
2021/01/18 05:43:32;;;;;;;;;;;;;;;-6.28;100.00;101285.19;5113188;28;20414;-71
2021/01/18 05:46:02;;;;;;;;;;;;;;;-6.26;100.00;101297.50;5108875;28;20556;-71
2021/01/18 05:48:28;;;;;;;;;;;;;;;-6.23;100.00;101299.25;5113022;28;19923;-71
2021/01/18 05:50:55;;;;;;;;;;;;;;;-6.19;100.00;101302.78;5112628;28;20423;-72
2021/01/18 05:53:24;;;;;;;;;;;;;;;-6.23;100.00;101297.53;5092231;28;19931;-72
2021/01/18 05:55:50;;;;;;;;;;;;;;;-6.16;100.00;101301.03;5111927;28;20005;-71
2021/01/18 05:58:28;;;;;;;;;;;;;;;-6.11;100.00;101298.34;5113005;28;19927;-72
2021/01/18 06:00:54;;;;;;;;;;;;;;;-6.15;100.00;101299.25;5112999;28;19924;-71
2021/01/18 06:03:26;;;;;;;;;;;;;;;-6.16;100.00;101300.13;5104752;28;19928;-72
2021/01/18 06:05:52;;;;;;;;;;;;;;;-6.10;100.00;101300.13;5097022;28;19982;-71
2021/01/18 06:08:19;;;;;;;;;;;;;;;-6.12;100.00;101296.59;5108799;28;20014;-71
2021/01/18 06:10:46;;;;;;;;;;;;;;;-6.09;100.00;101301.88;5112698;28;19935;-71
2021/01/18 06:13:19;;;;;;;;;;;;;;;-6.03;100.00;101300.97;5106477;28;20026;-71
2021/01/18 06:15:46;;;;;;;;;;;;;;;-6.04;100.00;101296.56;5111645;28;20625;-71
2021/01/18 06:18:12;;;;;;;;;;;;;;;-6.05;100.00;101298.34;5105047;28;19931;-71
2021/01/18 06:20:38;;;;;;;;;;;;;;;-6.01;100.00;101300.09;5091988;28;19924;-71
2021/01/18 06:23:04;;;;;;;;;;;;;;;-5.98;100.00;101302.72;5101044;28;19932;-72
2021/01/18 06:25:32;;;;;;;;;;;;;;;-5.93;100.00;101303.53;5102459;28;19924;-71
2021/01/18 06:27:58;;;;;;;;;;;;;;;-5.90;100.00;101300.00;5110999;27;19931;-72
2021/01/18 06:30:26;;;;;;;;;;;;;;;-5.91;100.00;101296.47;5112194;28;19959;-71
2021/01/18 06:32:56;;;;;;;;;;;;;;;-5.91;100.00;101301.75;5107710;28;20035;-71
2021/01/18 06:35:23;;;;;;;;;;;;;;;-5.93;100.00;101298.25;5103458;28;19931;-71
2021/01/18 06:37:54;;;;;;;;;;;;;;;-5.97;100.00;101296.50;5111798;28;19966;-71
2021/01/18 06:40:25;;;;;;;;;;;;;;;-5.98;100.00;101286.84;5112006;28;20006;-71
2021/01/18 06:42:51;;;;;;;;;;;;;;;-5.94;100.00;101296.50;5109985;28;19970;-72
2021/01/18 06:45:19;;;;;;;;;;;;;;;-5.88;100.00;101307.06;5110109;28;19924;-71
2021/01/18 06:47:46;;;;;;;;;;;;;;;-5.86;100.00;101301.75;5093110;28;20018;-70
2021/01/18 06:50:13;;;;;;;;;;;;;;;-5.86;100.00;101307.03;5105937;28;19932;-71
2021/01/18 06:52:45;;;;;;;;;;;;;;;-5.93;100.00;101308.84;5111484;28;20325;-70
2021/01/18 06:55:15;;;;;;;;;;;;;;;-5.83;100.00;101307.03;5111791;28;19928;-71
2021/01/18 06:57:58;;;;;;;;;;;;;;;-5.89;100.00;101310.56;5111053;28;20404;-71
2021/01/18 07:00:24;;;;;;;;;;;;;;;-5.88;100.00;101308.81;5087507;28;19970;-72
2021/01/18 07:02:55;;;;;;;;;;;;;;;-5.88;100.00;101300.88;5090890;28;19928;-71
2021/01/18 07:05:30;;;;;;;;;;;;;;;-5.91;100.00;101307.03;5091084;28;20354;-71
2021/01/18 07:08:02;;;;;;;;;;;;;;;-5.85;100.00;101307.91;5092224;28;19924;-71
2021/01/18 07:10:30;;;;;;;;;;;;;;;-5.88;100.00;101314.09;5111444;28;19956;-71
2021/01/18 07:12:57;;;;;;;;;;;;;;;-5.93;100.00;101316.75;5110096;28;20023;-72
2021/01/18 07:15:23;;;;;;;;;;;;;;;-5.95;100.00;101315.00;5111521;28;20014;-71
2021/01/18 07:17:52;;;;;;;;;;;;;;;-5.88;100.00;101311.44;5110769;28;19924;-71
2021/01/18 07:20:22;;;;;;;;;;;;;;;-5.84;100.00;101309.69;5095675;28;20253;-71
2021/01/18 07:22:56;;;;;;;;;;;;;;;-5.91;100.00;101317.63;5111384;28;19935;-72
2021/01/18 07:25:23;;;;;;;;;;;;;;;-5.87;100.00;101315.84;5110341;28;20340;-71
2021/01/18 07:27:51;;;;;;;;;;;;;;;-5.92;100.00;101317.63;5109607;28;19978;-71
2021/01/18 07:30:17;;;;;;;;;;;;;;;-5.96;100.00;101308.84;5111471;28;19924;-71
2021/01/18 07:32:43;;;;;;;;;;;;;;;-5.93;100.00;101308.84;5103278;28;19959;-71
2021/01/18 07:35:09;;;;;;;;;;;;;;;-5.92;100.00;101304.41;5072590;28;20412;-72
2021/01/18 07:37:35;;;;;;;;;;;;;;;-5.97;100.00;101309.72;5090655;28;19924;-71
2021/01/18 07:40:09;;;;;;;;;;;;;;;-5.99;100.00;101308.88;5097995;28;19935;-71
2021/01/18 07:42:39;;;;;;;;;;;;;;;-5.96;100.00;101314.16;5109877;28;19924;-72
2021/01/18 07:45:11;;;;;;;;;;;;;;;-5.86;100.00;101319.41;5109041;28;19932;-71
2021/01/18 07:48:04;;;;;;;;;;;;;;;-5.80;100.00;101324.66;5109026;28;20439;-71
2021/01/18 07:50:30;;;;;;;;;;;;;;;-5.85;100.00;101324.69;5110739;28;19930;-72
2021/01/18 07:52:57;;;;;;;;;;;;;;;-5.82;100.00;101318.50;5111076;28;20043;-72
2021/01/18 07:55:23;;;;;;;;;;;;;;;-5.74;100.00;101320.22;5109681;28;19924;-72
2021/01/18 07:57:49;;;;;;;;;;;;;;;-5.70;100.00;101318.44;5109384;28;20385;-73
2021/01/18 08:00:31;;;;;;;;;;;;;;;-5.67;100.00;101320.19;5107589;28;19945;-70
2021/01/18 08:03:20;;;;;;;;;;;;;;;-5.61;100.00;101306.91;5109567;28;20018;-70
2021/01/18 08:05:47;;;;;;;;;;;;;;;-5.67;100.00;101313.13;5110932;28;19932;-70
2021/01/18 08:08:14;;;;;;;;;;;;;;;-5.71;100.00;101314.03;5110600;28;19924;-71
2021/01/18 08:11:00;;;;;;;;;;;;;;;-5.64;100.00;101305.16;5099751;28;20313;-71
2021/01/18 08:13:40;;;;;;;;;;;;;;;-5.52;100.00;101306.00;5090498;28;20357;-71
2021/01/18 08:16:12;;;;;;;;;;;;;;;-5.45;100.00;101303.31;5094721;28;19925;-71
2021/01/18 08:18:48;;;;;;;;;;;;;;;-5.35;100.00;101306.78;5103424;28;19966;-71
2021/01/18 08:21:32;;;;;;;;;;;;;;;-5.50;100.00;101301.59;5114812;28;19950;-72
2021/01/18 08:23:58;;;;;;;;;;;;;;;-5.51;100.00;101294.53;5114656;28;20015;-71
2021/01/18 08:26:25;;;;;;;;;;;;;;;-5.50;100.00;101291.00;5103044;28;19947;-72
2021/01/18 08:28:50;;;;;;;;;;;;;;;-5.43;100.00;101293.59;5092762;28;19962;-71
2021/01/18 08:31:16;;;;;;;;;;;;;;;-5.40;100.00;101283.00;5094182;28;19924;-71
2021/01/18 08:33:42;;;;;;;;;;;;;;;-5.28;100.00;101287.34;5113304;28;19927;-71
2021/01/18 08:36:09;;;;;;;;;;;;;;;-5.26;100.00;101290.84;5113598;28;19924;-71
2021/01/18 08:38:35;;;;;;;;;;;;;;;-5.31;100.00;101283.81;5098361;28;19977;-71
2021/01/18 08:41:04;;;;;;;;;;;;;;;-5.41;100.00;101290.94;5114278;28;19960;-71
2021/01/18 08:43:47;;;;;;;;;;;;;;;-5.29;100.00;101282.03;5114403;28;19958;-71
2021/01/18 08:46:31;;;;;;;;;;;;;;;-5.15;100.00;101277.53;5113183;28;19923;-71
2021/01/18 08:49:16;;;;;;;;;;;;;;;-5.17;100.00;101286.38;5113952;28;19985;-72
2021/01/18 08:51:45;;;;;;;;;;;;;;;-5.16;100.00;101278.41;5112977;28;19931;-72
2021/01/18 08:54:11;;;;;;;;;;;;;;;-5.10;100.00;101285.44;5112774;28;20301;-72
2021/01/18 08:56:38;;;;;;;;;;;;;;;-5.09;100.00;101289.81;5094238;28;19971;-73
2021/01/18 08:59:13;;;;;;;;;;;;;;;-4.98;100.00;101295.94;5095764;28;19924;-73
2021/01/18 09:01:39;;;;;;;;;;;;;;;-4.95;100.00;101290.59;5113630;28;20385;-73
2021/01/18 09:04:05;;;;;;;;;;;;;;;-4.83;100.00;101304.66;5112236;28;20019;-73
2021/01/18 09:06:31;;;;;;;;;;;;;;;-4.76;100.00;101311.66;5112511;28;20535;-73
2021/01/18 09:09:00;;;;;;;;;;;;;;;-4.79;100.00;101303.75;5113666;28;19923;-73
2021/01/18 09:11:27;;;;;;;;;;;;;;;-4.76;100.00;101307.22;5113480;28;19974;-73
2021/01/18 09:13:52;;;;;;;;;;;;;;;-4.72;100.00;101301.03;5107266;28;20018;-74
2021/01/18 09:16:19;;;;;;;;;;;;;;;-4.62;100.00;101303.56;5095856;28;19989;-74
2021/01/18 09:18:45;;;;;;;;;;;;;;;-4.62;100.00;101293.88;5094599;28;20364;-74
2021/01/18 09:21:11;;;;;;;;;;;;;;;-4.64;100.00;101300.94;5093179;28;19924;-73
2021/01/18 09:23:37;;;;;;;;;;;;;;;-4.60;100.00;101296.50;5092765;28;19946;-74
2021/01/18 09:26:05;;;;;;;;;;;;;;;-4.60;100.00;101297.38;5102909;28;19950;-74
2021/01/18 09:28:31;;;;;;;;;;;;;;;-4.47;100.00;101292.84;5094210;28;20309;-74
2021/01/18 09:31:05;;;;;;;;;;;;;;;-4.50;100.00;101279.63;5105427;28;19955;-74
2021/01/18 09:33:32;;;;;;;;;;;;;;;-4.64;100.00;101282.38;5091480;28;20419;-74
2021/01/18 09:35:58;;;;;;;;;;;;;;;-4.51;100.00;101280.50;5101620;28;20026;-74
2021/01/18 09:38:23;;;;;;;;;;;;;;;-4.34;100.00;101288.28;5111826;28;20300;-74
2021/01/18 09:40:49;;;;;;;;;;;;;;;-4.24;100.00;101279.31;5112815;28;19934;-75
2021/01/18 09:43:18;;;;;;;;;;;;;;;-4.19;100.00;101279.28;5096693;28;20284;-74
2021/01/18 09:45:44;;;;;;;;;;;;;;;-4.38;100.00;101273.31;5104753;28;19968;-74
2021/01/18 09:48:11;;;;;;;;;;;;;;;-4.46;100.00;101275.16;5092675;28;20007;-74
2021/01/18 09:50:38;;;;;;;;;;;;;;;-4.46;100.00;101273.41;5107933;27;20359;-73
2021/01/18 09:53:05;;;;;;;;;;;;;;;-4.35;100.00;101269.75;5110775;28;19974;-73
2021/01/18 09:55:31;;;;;;;;;;;;;;;-4.11;100.00;101272.13;5101959;28;19924;-72
2021/01/18 09:57:58;;;;;;;;;;;;;;;-4.26;100.00;101265.22;5108151;28;20447;-75
2021/01/18 10:00:26;;;;;;;;;;;;;;;-4.21;100.00;101258.09;5111965;28;19938;-75
2021/01/18 10:02:53;;;;;;;;;;;;;;;-4.01;100.00;101270.22;5106736;28;20000;-73
2021/01/18 10:05:22;;;;;;;;;;;;;;;-4.17;100.00;101273.97;5102442;28;19924;-73
2021/01/18 10:07:51;;;;;;;;;;;;;;;-4.12;100.00;101273.00;5100766;28;20440;-74
2021/01/18 10:10:17;;;;;;;;;;;;;;;-3.98;100.00;101279.91;5111533;28;20523;-74
2021/01/18 10:12:49;;;;;;;;;;;;;;;-3.89;100.00;101270.09;5095497;28;19928;-73
2021/01/18 10:15:21;;;;;;;;;;;;;;;-4.10;100.00;101259.72;5092093;28;19924;-74
2021/01/18 10:17:46;;;;;;;;;;;;;;;-4.21;100.00;101254.56;5094029;28;20014;-73
2021/01/18 10:20:13;;;;;;;;;;;;;;;-4.12;100.00;101250.94;5096626;28;19958;-74
2021/01/18 10:22:39;;;;;;;;;;;;;;;-4.22;100.00;101250.16;5112211;28;20039;-74
2021/01/18 10:25:09;;;;;;;;;;;;;;;-4.24;100.00;101251.94;5094055;28;19924;-74
2021/01/18 10:27:35;;;;;;;;;;;;;;;-4.05;100.00;101255.25;5105817;28;20351;-74
2021/01/18 10:30:09;;;;;;;;;;;;;;;-4.04;100.00;101257.88;5111068;28;20401;-74
2021/01/18 10:32:39;;;;;;;;;;;;;;;-3.93;100.00;101243.59;5109055;28;20411;-74
2021/01/18 10:35:20;;;;;;;;;;;;;;;-3.71;100.00;101246.88;5111136;28;19963;-74
2021/01/18 10:37:46;;;;;;;;;;;;;;;-3.66;100.00;101245.03;5106836;28;19966;-76
2021/01/18 10:40:13;;;;;;;;;;;;;;;-3.59;100.00;101233.41;5109790;28;19928;-76
2021/01/18 10:42:46;;;;;;;;;;;;;;;-3.75;100.00;101237.19;5100751;28;20384;-76
2021/01/18 10:45:15;;;;;;;;;;;;;;;-3.73;100.00;101240.69;5112524;28;19934;-76
2021/01/18 10:47:41;;;;;;;;;;;;;;;-3.66;100.00;101234.41;5112603;28;19935;-76
2021/01/18 10:50:08;;;;;;;;;;;;;;;-3.59;100.00;101235.19;5107214;28;19924;-76
2021/01/18 10:52:35;;;;;;;;;;;;;;;-3.69;100.00;101239.75;5111745;28;20019;-77
2021/01/18 10:55:03;;;;;;;;;;;;;;;-3.77;100.00;101234.56;5098716;28;19924;-75
2021/01/18 10:57:30;;;;;;;;;;;;;;;-3.82;100.00;101228.44;5093617;28;19958;-75
2021/01/18 11:00:08;;;;;;;;;;;;;;;-3.66;100.00;101234.41;5091198;28;19984;-75
2021/01/18 11:02:35;;;;;;;;;;;;;;;-3.51;100.00;101220.03;5091323;28;19963;-76
2021/01/18 11:05:01;;;;;;;;;;;;;;;-3.36;100.00;101226.88;5091953;28;20289;-76
2021/01/18 11:07:27;;;;;;;;;;;;;;;-3.51;100.00;101224.44;5091137;28;19963;-76
2021/01/18 11:09:55;;;;;;;;;;;;;;;-3.48;100.00;101222.63;5098144;28;20018;-76
2021/01/18 11:12:28;;;;;;;;;;;;;;;-3.37;100.00;101217.16;5111419;28;19923;-76
2021/01/18 11:14:58;;;;;;;;;;;;;;;-3.27;100.00;101223.22;5110460;28;20019;-76
2021/01/18 11:17:26;;;;;;;;;;;;;;;-3.36;100.00;101225.09;5111206;28;19931;-76
2021/01/18 11:19:52;;;;;;;;;;;;;;;-3.39;100.00;101218.97;5111131;28;19988;-75
2021/01/18 11:22:18;;;;;;;;;;;;;;;-3.23;100.00;101228.44;5111634;28;20347;-75
2021/01/18 11:24:44;;;;;;;;;;;;;;;-3.12;100.00;101225.63;5099514;28;19925;-75
2021/01/18 11:27:10;;;;;;;;;;;;;;;-3.28;100.00;101219.66;5109382;28;19931;-74
2021/01/18 11:29:36;;;;;;;;;;;;;;;-3.20;100.00;101220.41;5110150;28;20289;-74
2021/01/18 11:32:02;;;;;;;;;;;;;;;-3.08;100.00;101205.19;5091034;28;19924;-74
2021/01/18 11:34:28;;;;;;;;;;;;;;;-3.01;100.00;101213.94;5091876;28;19924;-73
2021/01/18 11:36:54;;;;;;;;;;;;;;;-2.94;100.00;101207.59;5095789;28;19968;-74
2021/01/18 11:39:20;;;;;;;;;;;;;;;-3.13;100.00;101204.41;5098385;28;20011;-74
2021/01/18 11:41:46;;;;;;;;;;;;;;;-3.18;100.00;101204.44;5091405;28;19935;-74
2021/01/18 11:44:11;;;;;;;;;;;;;;;-3.11;100.00;101194.63;5091132;28;20379;-74
2021/01/18 11:46:37;;;;;;;;;;;;;;;-2.93;100.00;101201.38;5090761;28;19924;-73
2021/01/18 11:49:04;;;;;;;;;;;;;;;-2.72;100.00;101198.34;5094455;28;19924;-73
2021/01/18 11:51:30;;;;;;;;;;;;;;;-2.69;100.00;101194.75;5105187;28;19924;-74
2021/01/18 11:53:55;;;;;;;;;;;;;;;-2.64;100.00;101187.56;5094600;28;20405;-73
2021/01/18 11:56:28;;;;;;;;;;;;;;;-2.56;100.00;101182.97;5105361;28;19924;-73
2021/01/18 11:58:54;;;;;;;;;;;;;;;-2.62;100.00;101175.13;5104988;28;19963;-73
2021/01/18 12:01:19;;;;;;;;;;;;;;;-2.58;100.00;101174.16;5109935;28;20555;-73
2021/01/18 12:03:45;;;;;;;;;;;;;;;-2.53;100.00;101174.06;5108053;28;19932;-74
2021/01/18 12:06:12;;;;;;;;;;;;;;;-2.55;100.00;101170.56;5113736;28;19924;-73
2021/01/18 12:08:38;;;;;;;;;;;;;;;-2.50;100.00;101171.34;5115082;28;20304;-73
2021/01/18 12:11:03;;;;;;;;;;;;;;;-2.50;100.00;101171.34;5114354;28;19931;-73
2021/01/18 12:13:30;;;;;;;;;;;;;;;-2.53;100.00;101161.63;5114821;28;19951;-74
2021/01/18 12:15:56;;;;;;;;;;;;;;;-2.58;100.00;101168.84;5096347;28;20347;-73
2021/01/18 12:18:22;;;;;;;;;;;;;;;-2.60;100.00;101159.16;5094518;28;19980;-74
2021/01/18 12:20:47;;;;;;;;;;;;;;;-2.56;100.00;101153.72;5094361;28;20263;-73
2021/01/18 12:23:18;;;;;;;;;;;;;;;-2.62;100.00;101142.34;5112694;28;20277;-73
2021/01/18 12:25:44;;;;;;;;;;;;;;;-2.59;100.00;101144.94;5114030;28;19924;-74
2021/01/18 12:28:10;;;;;;;;;;;;;;;-2.49;100.00;101150.97;5109404;28;20456;-74
2021/01/18 12:30:36;;;;;;;;;;;;;;;-2.52;100.00;101136.81;5114253;28;19924;-73
2021/01/18 12:33:02;;;;;;;;;;;;;;;-2.59;100.00;101135.19;5114618;28;19931;-73
2021/01/18 12:35:28;;;;;;;;;;;;;;;-2.61;100.00;101133.47;5114305;28;19923;-73